sensor_id;sensor_type;location;lat;lon;timestamp;P1;durP1;ratioP1;P2;durP2;ratioP2
42018;SDS011;27703;51.980;5.848;2024-02-21T00:02:03;34.17;;;16.05;;
42018;SDS011;27703;51.980;5.848;2024-02-21T00:04:28;28.23;;;14.57;;
42018;SDS011;27703;51.980;5.848;2024-02-21T00:06:54;22.33;;;12.50;;
42018;SDS011;27703;51.980;5.848;2024-02-21T00:09:19;32.55;;;13.55;;
42018;SDS011;27703;51.980;5.848;2024-02-21T00:11:45;30.65;;;14.38;;
42018;SDS011;27703;51.980;5.848;2024-02-21T00:14:10;32.15;;;12.52;;
42018;SDS011;27703;51.980;5.848;2024-02-21T00:16:36;28.75;;;13.38;;
42018;SDS011;27703;51.980;5.848;2024-02-21T00:19:01;33.60;;;14.20;;
42018;SDS011;27703;51.980;5.848;2024-02-21T00:21:27;27.30;;;13.25;;
42018;SDS011;27703;51.980;5.848;2024-02-21T00:23:52;32.10;;;15.32;;
42018;SDS011;27703;51.980;5.848;2024-02-21T00:26:18;23.17;;;12.32;;
42018;SDS011;27703;51.980;5.848;2024-02-21T00:28:43;30.40;;;13.05;;
42018;SDS011;27703;51.980;5.848;2024-02-21T00:31:10;27.10;;;13.52;;
42018;SDS011;27703;51.980;5.848;2024-02-21T00:33:35;26.05;;;14.68;;
42018;SDS011;27703;51.980;5.848;2024-02-21T00:36:01;27.05;;;12.38;;
42018;SDS011;27703;51.980;5.848;2024-02-21T00:38:27;35.42;;;13.98;;
42018;SDS011;27703;51.980;5.848;2024-02-21T00:40:52;26.80;;;12.95;;
42018;SDS011;27703;51.980;5.848;2024-02-21T00:43:18;29.67;;;12.40;;
42018;SDS011;27703;51.980;5.848;2024-02-21T00:45:43;20.80;;;11.80;;
42018;SDS011;27703;51.980;5.848;2024-02-21T00:48:09;26.40;;;12.43;;
42018;SDS011;27703;51.980;5.848;2024-02-21T00:50:34;28.85;;;13.55;;
42018;SDS011;27703;51.980;5.848;2024-02-21T00:53:00;27.63;;;12.85;;
42018;SDS011;27703;51.980;5.848;2024-02-21T00:55:25;44.58;;;17.20;;
42018;SDS011;27703;51.980;5.848;2024-02-21T00:57:51;23.88;;;13.30;;
42018;SDS011;27703;51.980;5.848;2024-02-21T01:00:16;26.35;;;13.65;;
42018;SDS011;27703;51.980;5.848;2024-02-21T01:02:42;30.13;;;13.07;;
42018;SDS011;27703;51.980;5.848;2024-02-21T01:05:08;34.45;;;14.80;;
42018;SDS011;27703;51.980;5.848;2024-02-21T01:07:34;25.02;;;13.13;;
42018;SDS011;27703;51.980;5.848;2024-02-21T01:09:59;24.92;;;12.80;;
42018;SDS011;27703;51.980;5.848;2024-02-21T01:12:25;29.38;;;12.50;;
42018;SDS011;27703;51.980;5.848;2024-02-21T01:14:50;22.48;;;10.73;;
42018;SDS011;27703;51.980;5.848;2024-02-21T01:17:16;22.48;;;12.23;;
42018;SDS011;27703;51.980;5.848;2024-02-21T01:19:41;21.88;;;12.02;;
42018;SDS011;27703;51.980;5.848;2024-02-21T01:22:07;22.98;;;12.73;;
42018;SDS011;27703;51.980;5.848;2024-02-21T01:24:33;27.35;;;13.18;;
42018;SDS011;27703;51.980;5.848;2024-02-21T01:26:59;18.55;;;11.07;;
42018;SDS011;27703;51.980;5.848;2024-02-21T01:29:25;29.60;;;13.68;;
42018;SDS011;27703;51.980;5.848;2024-02-21T01:31:50;28.02;;;13.63;;
42018;SDS011;27703;51.980;5.848;2024-02-21T01:34:16;29.45;;;14.13;;
42018;SDS011;27703;51.980;5.848;2024-02-21T01:36:41;28.02;;;12.68;;
42018;SDS011;27703;51.980;5.848;2024-02-21T01:39:07;37.88;;;15.95;;
42018;SDS011;27703;51.980;5.848;2024-02-21T01:41:32;31.27;;;14.55;;
42018;SDS011;27703;51.980;5.848;2024-02-21T01:43:58;31.13;;;13.15;;
42018;SDS011;27703;51.980;5.848;2024-02-21T01:46:24;22.80;;;12.82;;
42018;SDS011;27703;51.980;5.848;2024-02-21T01:48:55;26.25;;;12.48;;
42018;SDS011;27703;51.980;5.848;2024-02-21T01:51:21;25.65;;;12.35;;
42018;SDS011;27703;51.980;5.848;2024-02-21T01:53:47;17.85;;;11.57;;
42018;SDS011;27703;51.980;5.848;2024-02-21T01:56:15;21.38;;;11.05;;
42018;SDS011;27703;51.980;5.848;2024-02-21T01:58:42;18.45;;;10.63;;
42018;SDS011;27703;51.980;5.848;2024-02-21T02:01:09;25.23;;;12.57;;
42018;SDS011;27703;51.980;5.848;2024-02-21T02:03:35;22.35;;;12.73;;
42018;SDS011;27703;51.980;5.848;2024-02-21T02:06:01;24.13;;;11.70;;
42018;SDS011;27703;51.980;5.848;2024-02-21T02:08:27;29.30;;;12.50;;
42018;SDS011;27703;51.980;5.848;2024-02-21T02:10:53;29.00;;;13.10;;
42018;SDS011;27703;51.980;5.848;2024-02-21T02:13:18;28.40;;;13.45;;
42018;SDS011;27703;51.980;5.848;2024-02-21T02:15:47;22.88;;;11.82;;
42018;SDS011;27703;51.980;5.848;2024-02-21T02:18:14;23.17;;;10.88;;
42018;SDS011;27703;51.980;5.848;2024-02-21T02:20:41;19.10;;;11.40;;
42018;SDS011;27703;51.980;5.848;2024-02-21T02:23:09;22.77;;;11.73;;
42018;SDS011;27703;51.980;5.848;2024-02-21T02:25:36;20.58;;;11.60;;
42018;SDS011;27703;51.980;5.848;2024-02-21T02:28:03;29.17;;;12.98;;
42018;SDS011;27703;51.980;5.848;2024-02-21T02:30:31;16.15;;;10.60;;
42018;SDS011;27703;51.980;5.848;2024-02-21T02:33:04;23.10;;;12.38;;
42018;SDS011;27703;51.980;5.848;2024-02-21T02:35:30;23.08;;;13.50;;
42018;SDS011;27703;51.980;5.848;2024-02-21T02:37:56;24.88;;;12.32;;
42018;SDS011;27703;51.980;5.848;2024-02-21T02:40:22;19.95;;;10.52;;
42018;SDS011;27703;51.980;5.848;2024-02-21T02:42:48;29.75;;;12.18;;
42018;SDS011;27703;51.980;5.848;2024-02-21T02:45:14;26.60;;;11.93;;
42018;SDS011;27703;51.980;5.848;2024-02-21T02:47:40;29.35;;;13.10;;
42018;SDS011;27703;51.980;5.848;2024-02-21T02:50:07;26.05;;;11.80;;
42018;SDS011;27703;51.980;5.848;2024-02-21T02:52:33;28.92;;;13.85;;
42018;SDS011;27703;51.980;5.848;2024-02-21T02:54:58;24.17;;;11.70;;
42018;SDS011;27703;51.980;5.848;2024-02-21T02:57:24;28.17;;;14.25;;
42018;SDS011;27703;51.980;5.848;2024-02-21T02:59:50;30.65;;;11.68;;
42018;SDS011;27703;51.980;5.848;2024-02-21T03:02:16;23.63;;;11.63;;
42018;SDS011;27703;51.980;5.848;2024-02-21T03:04:42;27.58;;;13.82;;
42018;SDS011;27703;51.980;5.848;2024-02-21T03:07:08;27.95;;;12.38;;
42018;SDS011;27703;51.980;5.848;2024-02-21T03:09:34;24.92;;;11.35;;
42018;SDS011;27703;51.980;5.848;2024-02-21T03:11:59;27.63;;;12.23;;
42018;SDS011;27703;51.980;5.848;2024-02-21T03:14:30;25.77;;;11.68;;
42018;SDS011;27703;51.980;5.848;2024-02-21T03:16:57;27.95;;;12.88;;
42018;SDS011;27703;51.980;5.848;2024-02-21T03:19:23;25.58;;;12.90;;
42018;SDS011;27703;51.980;5.848;2024-02-21T03:21:49;22.25;;;12.18;;
42018;SDS011;27703;51.980;5.848;2024-02-21T03:24:16;25.98;;;12.20;;
42018;SDS011;27703;51.980;5.848;2024-02-21T03:26:41;21.33;;;10.82;;
42018;SDS011;27703;51.980;5.848;2024-02-21T03:29:07;18.65;;;10.25;;
42018;SDS011;27703;51.980;5.848;2024-02-21T03:31:36;27.42;;;13.40;;
42018;SDS011;27703;51.980;5.848;2024-02-21T03:34:02;22.60;;;12.10;;
42018;SDS011;27703;51.980;5.848;2024-02-21T03:36:28;24.35;;;10.85;;
42018;SDS011;27703;51.980;5.848;2024-02-21T03:38:54;27.35;;;10.48;;
42018;SDS011;27703;51.980;5.848;2024-02-21T03:41:20;18.38;;;10.75;;
42018;SDS011;27703;51.980;5.848;2024-02-21T03:43:46;22.75;;;10.25;;
42018;SDS011;27703;51.980;5.848;2024-02-21T03:46:12;18.33;;;9.48;;
42018;SDS011;27703;51.980;5.848;2024-02-21T03:48:37;22.02;;;9.98;;
42018;SDS011;27703;51.980;5.848;2024-02-21T03:51:03;19.65;;;9.95;;
42018;SDS011;27703;51.980;5.848;2024-02-21T03:53:29;18.90;;;7.95;;
42018;SDS011;27703;51.980;5.848;2024-02-21T03:55:55;18.60;;;9.32;;
42018;SDS011;27703;51.980;5.848;2024-02-21T03:58:21;17.75;;;9.07;;
42018;SDS011;27703;51.980;5.848;2024-02-21T04:00:47;26.50;;;8.85;;
42018;SDS011;27703;51.980;5.848;2024-02-21T04:03:13;22.90;;;9.38;;
42018;SDS011;27703;51.980;5.848;2024-02-21T04:05:38;15.90;;;8.05;;
42018;SDS011;27703;51.980;5.848;2024-02-21T04:08:04;16.90;;;8.15;;
42018;SDS011;27703;51.980;5.848;2024-02-21T04:10:30;18.10;;;6.93;;
42018;SDS011;27703;51.980;5.848;2024-02-21T04:12:56;13.93;;;7.18;;
42018;SDS011;27703;51.980;5.848;2024-02-21T04:15:21;15.27;;;7.15;;
42018;SDS011;27703;51.980;5.848;2024-02-21T04:17:47;13.00;;;7.72;;
42018;SDS011;27703;51.980;5.848;2024-02-21T04:20:14;13.25;;;6.85;;
42018;SDS011;27703;51.980;5.848;2024-02-21T04:22:41;12.65;;;6.68;;
42018;SDS011;27703;51.980;5.848;2024-02-21T04:25:12;15.07;;;6.40;;
42018;SDS011;27703;51.980;5.848;2024-02-21T04:27:40;18.88;;;7.63;;
42018;SDS011;27703;51.980;5.848;2024-02-21T04:30:07;18.35;;;6.00;;
42018;SDS011;27703;51.980;5.848;2024-02-21T04:32:33;15.52;;;6.85;;
42018;SDS011;27703;51.980;5.848;2024-02-21T04:34:58;15.75;;;6.85;;
42018;SDS011;27703;51.980;5.848;2024-02-21T04:37:24;16.02;;;7.13;;
42018;SDS011;27703;51.980;5.848;2024-02-21T04:39:50;15.60;;;5.95;;
42018;SDS011;27703;51.980;5.848;2024-02-21T04:42:16;10.25;;;5.45;;
42018;SDS011;27703;51.980;5.848;2024-02-21T04:44:41;15.18;;;5.80;;
42018;SDS011;27703;51.980;5.848;2024-02-21T04:47:07;14.05;;;6.03;;
42018;SDS011;27703;51.980;5.848;2024-02-21T04:49:33;16.50;;;5.88;;
42018;SDS011;27703;51.980;5.848;2024-02-21T04:51:58;11.98;;;5.75;;
42018;SDS011;27703;51.980;5.848;2024-02-21T04:54:24;13.75;;;6.00;;
42018;SDS011;27703;51.980;5.848;2024-02-21T04:56:50;11.63;;;5.43;;
42018;SDS011;27703;51.980;5.848;2024-02-21T04:59:16;11.68;;;5.40;;
42018;SDS011;27703;51.980;5.848;2024-02-21T05:01:42;15.60;;;5.65;;
42018;SDS011;27703;51.980;5.848;2024-02-21T05:04:07;15.20;;;6.32;;
42018;SDS011;27703;51.980;5.848;2024-02-21T05:06:39;15.27;;;6.55;;
42018;SDS011;27703;51.980;5.848;2024-02-21T05:09:06;11.38;;;4.93;;
42018;SDS011;27703;51.980;5.848;2024-02-21T05:11:33;15.75;;;7.28;;
42018;SDS011;27703;51.980;5.848;2024-02-21T05:13:59;16.35;;;7.85;;
42018;SDS011;27703;51.980;5.848;2024-02-21T05:16:25;17.23;;;6.82;;
42018;SDS011;27703;51.980;5.848;2024-02-21T05:18:50;13.43;;;5.75;;
42018;SDS011;27703;51.980;5.848;2024-02-21T05:21:16;12.93;;;5.85;;
42018;SDS011;27703;51.980;5.848;2024-02-21T05:23:41;15.80;;;5.82;;
42018;SDS011;27703;51.980;5.848;2024-02-21T05:26:07;11.25;;;5.75;;
42018;SDS011;27703;51.980;5.848;2024-02-21T05:28:33;16.00;;;7.75;;
42018;SDS011;27703;51.980;5.848;2024-02-21T05:30:58;15.27;;;7.82;;
42018;SDS011;27703;51.980;5.848;2024-02-21T05:33:24;18.52;;;8.52;;
42018;SDS011;27703;51.980;5.848;2024-02-21T05:35:50;16.48;;;7.28;;
42018;SDS011;27703;51.980;5.848;2024-02-21T05:38:16;12.73;;;8.85;;
42018;SDS011;27703;51.980;5.848;2024-02-21T05:40:42;20.60;;;10.25;;
42018;SDS011;27703;51.980;5.848;2024-02-21T05:43:08;19.23;;;8.25;;
42018;SDS011;27703;51.980;5.848;2024-02-21T05:45:34;19.17;;;9.07;;
42018;SDS011;27703;51.980;5.848;2024-02-21T05:47:59;17.98;;;9.25;;
42018;SDS011;27703;51.980;5.848;2024-02-21T05:50:25;16.88;;;9.68;;
42018;SDS011;27703;51.980;5.848;2024-02-21T05:52:52;15.65;;;11.20;;
42018;SDS011;27703;51.980;5.848;2024-02-21T05:55:21;18.98;;;9.80;;
42018;SDS011;27703;51.980;5.848;2024-02-21T05:57:47;22.90;;;10.25;;
42018;SDS011;27703;51.980;5.848;2024-02-21T06:00:13;33.47;;;13.50;;
42018;SDS011;27703;51.980;5.848;2024-02-21T06:02:39;22.98;;;10.25;;
42018;SDS011;27703;51.980;5.848;2024-02-21T06:05:05;22.63;;;11.55;;
42018;SDS011;27703;51.980;5.848;2024-02-21T06:07:32;17.33;;;10.10;;
42018;SDS011;27703;51.980;5.848;2024-02-21T06:09:58;24.35;;;11.20;;
42018;SDS011;27703;51.980;5.848;2024-02-21T06:12:24;18.55;;;9.45;;
42018;SDS011;27703;51.980;5.848;2024-02-21T06:14:50;17.02;;;10.07;;
42018;SDS011;27703;51.980;5.848;2024-02-21T06:17:15;17.25;;;10.38;;
42018;SDS011;27703;51.980;5.848;2024-02-21T06:19:42;20.90;;;10.95;;
42018;SDS011;27703;51.980;5.848;2024-02-21T06:22:08;22.75;;;10.50;;
42018;SDS011;27703;51.980;5.848;2024-02-21T06:24:34;23.05;;;9.25;;
42018;SDS011;27703;51.980;5.848;2024-02-21T06:27:01;17.13;;;9.40;;
42018;SDS011;27703;51.980;5.848;2024-02-21T06:29:27;13.68;;;8.95;;
42018;SDS011;27703;51.980;5.848;2024-02-21T06:31:53;18.30;;;9.13;;
42018;SDS011;27703;51.980;5.848;2024-02-21T06:34:18;19.52;;;9.32;;
42018;SDS011;27703;51.980;5.848;2024-02-21T06:36:44;21.42;;;10.82;;
42018;SDS011;27703;51.980;5.848;2024-02-21T06:39:10;13.80;;;8.55;;
42018;SDS011;27703;51.980;5.848;2024-02-21T06:41:36;14.02;;;8.35;;
42018;SDS011;27703;51.980;5.848;2024-02-21T06:44:02;16.48;;;6.90;;
42018;SDS011;27703;51.980;5.848;2024-02-21T06:46:28;14.45;;;6.75;;
42018;SDS011;27703;51.980;5.848;2024-02-21T06:48:54;13.77;;;7.03;;
42018;SDS011;27703;51.980;5.848;2024-02-21T06:51:23;11.25;;;5.75;;
42018;SDS011;27703;51.980;5.848;2024-02-21T06:53:49;17.38;;;7.13;;
42018;SDS011;27703;51.980;5.848;2024-02-21T06:56:15;12.68;;;6.93;;
42018;SDS011;27703;51.980;5.848;2024-02-21T06:58:41;15.15;;;7.30;;
42018;SDS011;27703;51.980;5.848;2024-02-21T07:01:07;17.23;;;7.68;;
42018;SDS011;27703;51.980;5.848;2024-02-21T07:03:32;16.77;;;7.18;;
42018;SDS011;27703;51.980;5.848;2024-02-21T07:05:58;16.63;;;8.05;;
42018;SDS011;27703;51.980;5.848;2024-02-21T07:08:24;15.98;;;6.93;;
42018;SDS011;27703;51.980;5.848;2024-02-21T07:10:52;15.77;;;7.82;;
42018;SDS011;27703;51.980;5.848;2024-02-21T07:13:18;11.55;;;6.97;;
42018;SDS011;27703;51.980;5.848;2024-02-21T07:15:43;16.15;;;7.38;;
42018;SDS011;27703;51.980;5.848;2024-02-21T07:18:09;13.95;;;7.80;;
42018;SDS011;27703;51.980;5.848;2024-02-21T07:20:34;20.38;;;7.65;;
42018;SDS011;27703;51.980;5.848;2024-02-21T07:23:02;13.52;;;7.38;;
42018;SDS011;27703;51.980;5.848;2024-02-21T07:25:28;18.90;;;7.53;;
42018;SDS011;27703;51.980;5.848;2024-02-21T07:27:54;14.57;;;6.07;;
42018;SDS011;27703;51.980;5.848;2024-02-21T07:30:20;14.73;;;7.10;;
42018;SDS011;27703;51.980;5.848;2024-02-21T07:32:48;21.48;;;7.35;;
42018;SDS011;27703;51.980;5.848;2024-02-21T07:35:15;19.48;;;7.22;;
42018;SDS011;27703;51.980;5.848;2024-02-21T07:37:40;19.73;;;7.68;;
42018;SDS011;27703;51.980;5.848;2024-02-21T07:40:06;17.27;;;9.00;;
42018;SDS011;27703;51.980;5.848;2024-02-21T07:42:37;15.73;;;7.85;;
42018;SDS011;27703;51.980;5.848;2024-02-21T07:45:03;18.98;;;6.90;;
42018;SDS011;27703;51.980;5.848;2024-02-21T07:47:28;22.42;;;8.85;;
42018;SDS011;27703;51.980;5.848;2024-02-21T07:49:54;18.10;;;7.90;;
42018;SDS011;27703;51.980;5.848;2024-02-21T07:52:20;18.92;;;8.13;;
42018;SDS011;27703;51.980;5.848;2024-02-21T07:54:45;18.88;;;7.65;;
42018;SDS011;27703;51.980;5.848;2024-02-21T07:57:11;19.10;;;7.50;;
42018;SDS011;27703;51.980;5.848;2024-02-21T07:59:36;15.35;;;7.22;;
42018;SDS011;27703;51.980;5.848;2024-02-21T08:02:02;16.42;;;7.90;;
42018;SDS011;27703;51.980;5.848;2024-02-21T08:04:31;20.40;;;7.03;;
42018;SDS011;27703;51.980;5.848;2024-02-21T08:06:57;15.02;;;7.20;;
42018;SDS011;27703;51.980;5.848;2024-02-21T08:09:26;19.52;;;8.05;;
42018;SDS011;27703;51.980;5.848;2024-02-21T08:11:51;19.23;;;9.90;;
42018;SDS011;27703;51.980;5.848;2024-02-21T08:14:17;15.00;;;6.88;;
42018;SDS011;27703;51.980;5.848;2024-02-21T08:16:43;14.55;;;7.38;;
42018;SDS011;27703;51.980;5.848;2024-02-21T08:19:09;24.65;;;8.73;;
42018;SDS011;27703;51.980;5.848;2024-02-21T08:21:35;17.52;;;8.02;;
42018;SDS011;27703;51.980;5.848;2024-02-21T08:24:01;20.05;;;8.00;;
42018;SDS011;27703;51.980;5.848;2024-02-21T08:26:26;18.73;;;8.35;;
42018;SDS011;27703;51.980;5.848;2024-02-21T08:28:56;13.57;;;6.93;;
42018;SDS011;27703;51.980;5.848;2024-02-21T08:31:25;13.35;;;7.43;;
42018;SDS011;27703;51.980;5.848;2024-02-21T08:33:59;12.15;;;6.55;;
42018;SDS011;27703;51.980;5.848;2024-02-21T08:36:28;19.45;;;8.07;;
42018;SDS011;27703;51.980;5.848;2024-02-21T08:39:01;19.33;;;7.38;;
42018;SDS011;27703;51.980;5.848;2024-02-21T08:41:31;23.15;;;8.73;;
42018;SDS011;27703;51.980;5.848;2024-02-21T08:43:57;16.90;;;7.38;;
42018;SDS011;27703;51.980;5.848;2024-02-21T08:46:23;19.33;;;8.85;;
42018;SDS011;27703;51.980;5.848;2024-02-21T08:48:49;18.15;;;8.55;;
42018;SDS011;27703;51.980;5.848;2024-02-21T08:51:16;19.83;;;8.43;;
42018;SDS011;27703;51.980;5.848;2024-02-21T08:53:46;18.48;;;7.65;;
42018;SDS011;27703;51.980;5.848;2024-02-21T08:56:12;24.00;;;9.00;;
42018;SDS011;27703;51.980;5.848;2024-02-21T08:58:39;15.50;;;7.47;;
42018;SDS011;27703;51.980;5.848;2024-02-21T09:01:05;16.98;;;7.50;;
42018;SDS011;27703;51.980;5.848;2024-02-21T09:03:35;24.10;;;9.02;;
42018;SDS011;27703;51.980;5.848;2024-02-21T09:06:04;18.73;;;9.55;;
42018;SDS011;27703;51.980;5.848;2024-02-21T09:08:31;17.75;;;8.48;;
42018;SDS011;27703;51.980;5.848;2024-02-21T09:10:57;18.20;;;8.70;;
42018;SDS011;27703;51.980;5.848;2024-02-21T09:13:22;16.35;;;7.78;;
42018;SDS011;27703;51.980;5.848;2024-02-21T09:15:48;19.45;;;8.93;;
42018;SDS011;27703;51.980;5.848;2024-02-21T09:18:15;14.63;;;8.32;;
42018;SDS011;27703;51.980;5.848;2024-02-21T09:20:41;18.85;;;8.07;;
42018;SDS011;27703;51.980;5.848;2024-02-21T09:23:07;16.20;;;7.38;;
42018;SDS011;27703;51.980;5.848;2024-02-21T09:25:33;11.25;;;6.53;;
42018;SDS011;27703;51.980;5.848;2024-02-21T09:27:59;14.35;;;7.03;;
42018;SDS011;27703;51.980;5.848;2024-02-21T09:30:26;19.60;;;8.55;;
42018;SDS011;27703;51.980;5.848;2024-02-21T09:32:51;17.65;;;7.13;;
42018;SDS011;27703;51.980;5.848;2024-02-21T09:35:17;15.65;;;6.90;;
42018;SDS011;27703;51.980;5.848;2024-02-21T09:37:43;10.35;;;6.00;;
42018;SDS011;27703;51.980;5.848;2024-02-21T09:40:09;15.82;;;7.10;;
42018;SDS011;27703;51.980;5.848;2024-02-21T09:42:38;15.23;;;7.60;;
42018;SDS011;27703;51.980;5.848;2024-02-21T09:45:07;17.05;;;7.68;;
42018;SDS011;27703;51.980;5.848;2024-02-21T09:48:25;12.68;;;6.50;;
42018;SDS011;27703;51.980;5.848;2024-02-21T09:50:41;13.70;;;6.65;;
42018;SDS011;27703;51.980;5.848;2024-02-21T09:53:09;15.50;;;6.15;;
42018;SDS011;27703;51.980;5.848;2024-02-21T09:55:37;16.02;;;6.28;;
42018;SDS011;27703;51.980;5.848;2024-02-21T09:58:05;14.23;;;6.60;;
42018;SDS011;27703;51.980;5.848;2024-02-21T10:00:30;13.93;;;6.13;;
42018;SDS011;27703;51.980;5.848;2024-02-21T10:02:56;10.55;;;5.07;;
42018;SDS011;27703;51.980;5.848;2024-02-21T10:05:23;10.45;;;6.45;;
42018;SDS011;27703;51.980;5.848;2024-02-21T10:07:51;8.05;;;5.45;;
42018;SDS011;27703;51.980;5.848;2024-02-21T10:10:16;11.63;;;5.70;;
42018;SDS011;27703;51.980;5.848;2024-02-21T10:12:52;13.30;;;5.30;;
42018;SDS011;27703;51.980;5.848;2024-02-21T10:15:22;12.10;;;6.28;;
42018;SDS011;27703;51.980;5.848;2024-02-21T10:17:49;13.85;;;5.90;;
42018;SDS011;27703;51.980;5.848;2024-02-21T10:20:28;11.07;;;5.63;;
42018;SDS011;27703;51.980;5.848;2024-02-21T10:23:00;12.50;;;5.82;;
42018;SDS011;27703;51.980;5.848;2024-02-21T10:25:28;12.80;;;5.95;;
42018;SDS011;27703;51.980;5.848;2024-02-21T10:27:54;7.00;;;4.63;;
42018;SDS011;27703;51.980;5.848;2024-02-21T10:30:20;10.57;;;5.43;;
42018;SDS011;27703;51.980;5.848;2024-02-21T10:32:50;6.43;;;4.85;;
42018;SDS011;27703;51.980;5.848;2024-02-21T10:35:25;10.80;;;4.97;;
42018;SDS011;27703;51.980;5.848;2024-02-21T10:37:55;8.60;;;4.38;;
42018;SDS011;27703;51.980;5.848;2024-02-21T10:40:25;4.50;;;3.58;;
42018;SDS011;27703;51.980;5.848;2024-02-21T10:42:55;6.57;;;3.55;;
42018;SDS011;27703;51.980;5.848;2024-02-21T10:45:24;7.45;;;4.25;;
42018;SDS011;27703;51.980;5.848;2024-02-21T10:48:29;4.53;;;2.97;;
42018;SDS011;27703;51.980;5.848;2024-02-21T10:50:58;5.30;;;3.30;;
42018;SDS011;27703;51.980;5.848;2024-02-21T10:56:38;7.00;;;3.83;;
42018;SDS011;27703;51.980;5.848;2024-02-21T10:59:06;6.78;;;3.78;;
42018;SDS011;27703;51.980;5.848;2024-02-21T11:01:33;7.25;;;3.90;;
42018;SDS011;27703;51.980;5.848;2024-02-21T11:04:05;9.50;;;4.97;;
42018;SDS011;27703;51.980;5.848;2024-02-21T11:06:35;6.50;;;5.70;;
42018;SDS011;27703;51.980;5.848;2024-02-21T11:11:29;8.45;;;5.55;;
42018;SDS011;27703;51.980;5.848;2024-02-21T11:14:05;10.73;;;5.78;;
42018;SDS011;27703;51.980;5.848;2024-02-21T11:16:44;6.28;;;5.40;;
42018;SDS011;27703;51.980;5.848;2024-02-21T11:19:20;10.35;;;6.13;;
42018;SDS011;27703;51.980;5.848;2024-02-21T11:21:53;8.90;;;5.32;;
42018;SDS011;27703;51.980;5.848;2024-02-21T11:24:29;15.93;;;5.90;;
42018;SDS011;27703;51.980;5.848;2024-02-21T11:26:56;9.30;;;5.88;;
42018;SDS011;27703;51.980;5.848;2024-02-21T11:29:33;15.95;;;7.18;;
42018;SDS011;27703;51.980;5.848;2024-02-21T11:32:06;12.82;;;5.75;;
42018;SDS011;27703;51.980;5.848;2024-02-21T11:34:35;11.48;;;6.65;;
42018;SDS011;27703;51.980;5.848;2024-02-21T11:37:01;12.32;;;7.30;;
42018;SDS011;27703;51.980;5.848;2024-02-21T11:39:27;11.57;;;6.32;;
42018;SDS011;27703;51.980;5.848;2024-02-21T11:42:05;17.83;;;6.55;;
42018;SDS011;27703;51.980;5.848;2024-02-21T11:44:38;15.15;;;6.25;;
42018;SDS011;27703;51.980;5.848;2024-02-21T11:47:04;12.60;;;5.82;;
42018;SDS011;27703;51.980;5.848;2024-02-21T11:49:35;11.63;;;4.88;;
42018;SDS011;27703;51.980;5.848;2024-02-21T11:52:03;9.13;;;4.55;;
42018;SDS011;27703;51.980;5.848;2024-02-21T11:54:29;11.40;;;6.45;;
42018;SDS011;27703;51.980;5.848;2024-02-21T11:56:55;10.45;;;4.65;;
42018;SDS011;27703;51.980;5.848;2024-02-21T11:59:21;8.38;;;4.65;;
42018;SDS011;27703;51.980;5.848;2024-02-21T12:01:47;14.10;;;4.45;;
42018;SDS011;27703;51.980;5.848;2024-02-21T12:04:13;11.63;;;5.20;;
42018;SDS011;27703;51.980;5.848;2024-02-21T12:06:42;11.73;;;5.40;;
42018;SDS011;27703;51.980;5.848;2024-02-21T12:09:08;17.40;;;5.30;;
42018;SDS011;27703;51.980;5.848;2024-02-21T12:11:34;9.57;;;4.72;;
42018;SDS011;27703;51.980;5.848;2024-02-21T12:14:00;7.75;;;5.38;;
42018;SDS011;27703;51.980;5.848;2024-02-21T12:16:27;9.75;;;5.55;;
42018;SDS011;27703;51.980;5.848;2024-02-21T12:18:54;9.60;;;4.70;;
42018;SDS011;27703;51.980;5.848;2024-02-21T12:21:30;9.98;;;4.30;;
42018;SDS011;27703;51.980;5.848;2024-02-21T12:23:57;18.67;;;5.43;;
42018;SDS011;27703;51.980;5.848;2024-02-21T12:26:23;11.30;;;4.22;;
42018;SDS011;27703;51.980;5.848;2024-02-21T12:28:49;10.57;;;5.63;;
42018;SDS011;27703;51.980;5.848;2024-02-21T12:31:15;10.50;;;4.95;;
42018;SDS011;27703;51.980;5.848;2024-02-21T12:33:41;13.02;;;4.55;;
42018;SDS011;27703;51.980;5.848;2024-02-21T12:36:09;8.57;;;3.88;;
42018;SDS011;27703;51.980;5.848;2024-02-21T12:38:35;9.38;;;3.58;;
42018;SDS011;27703;51.980;5.848;2024-02-21T12:41:01;10.77;;;4.18;;
42018;SDS011;27703;51.980;5.848;2024-02-21T12:43:28;12.60;;;3.75;;
42018;SDS011;27703;51.980;5.848;2024-02-21T12:45:54;8.52;;;3.17;;
42018;SDS011;27703;51.980;5.848;2024-02-21T12:48:19;10.65;;;4.05;;
42018;SDS011;27703;51.980;5.848;2024-02-21T12:50:48;12.95;;;4.18;;
42018;SDS011;27703;51.980;5.848;2024-02-21T12:53:20;9.35;;;3.65;;
42018;SDS011;27703;51.980;5.848;2024-02-21T12:55:49;9.70;;;3.33;;
42018;SDS011;27703;51.980;5.848;2024-02-21T12:58:15;8.60;;;3.22;;
42018;SDS011;27703;51.980;5.848;2024-02-21T13:00:41;7.53;;;2.97;;
42018;SDS011;27703;51.980;5.848;2024-02-21T13:03:07;11.00;;;2.50;;
42018;SDS011;27703;51.980;5.848;2024-02-21T13:05:34;6.50;;;3.10;;
42018;SDS011;27703;51.980;5.848;2024-02-21T13:08:01;9.80;;;3.50;;
42018;SDS011;27703;51.980;5.848;2024-02-21T13:10:26;6.68;;;3.05;;
42018;SDS011;27703;51.980;5.848;2024-02-21T13:12:52;6.72;;;2.75;;
42018;SDS011;27703;51.980;5.848;2024-02-21T13:15:17;7.68;;;2.88;;
42018;SDS011;27703;51.980;5.848;2024-02-21T13:17:44;7.70;;;2.95;;
42018;SDS011;27703;51.980;5.848;2024-02-21T13:20:10;8.43;;;2.92;;
42018;SDS011;27703;51.980;5.848;2024-02-21T13:22:36;12.00;;;3.80;;
42018;SDS011;27703;51.980;5.848;2024-02-21T13:25:02;6.65;;;2.30;;
42018;SDS011;27703;51.980;5.848;2024-02-21T13:27:28;10.15;;;3.00;;
42018;SDS011;27703;51.980;5.848;2024-02-21T13:29:54;6.82;;;2.72;;
42018;SDS011;27703;51.980;5.848;2024-02-21T13:32:19;7.90;;;2.42;;
42018;SDS011;27703;51.980;5.848;2024-02-21T13:34:45;7.90;;;2.95;;
42018;SDS011;27703;51.980;5.848;2024-02-21T13:37:10;8.43;;;2.92;;
42018;SDS011;27703;51.980;5.848;2024-02-21T13:39:37;8.70;;;2.60;;
42018;SDS011;27703;51.980;5.848;2024-02-21T13:42:02;4.80;;;1.75;;
42018;SDS011;27703;51.980;5.848;2024-02-21T13:44:30;7.88;;;2.83;;
42018;SDS011;27703;51.980;5.848;2024-02-21T13:46:56;11.82;;;2.42;;
42018;SDS011;27703;51.980;5.848;2024-02-21T13:49:22;5.32;;;2.22;;
42018;SDS011;27703;51.980;5.848;2024-02-21T13:51:48;8.15;;;2.53;;
42018;SDS011;27703;51.980;5.848;2024-02-21T13:54:13;6.65;;;2.25;;
42018;SDS011;27703;51.980;5.848;2024-02-21T13:56:42;7.00;;;2.35;;
42018;SDS011;27703;51.980;5.848;2024-02-21T13:59:08;10.57;;;2.53;;
42018;SDS011;27703;51.980;5.848;2024-02-21T14:01:33;10.88;;;2.55;;
42018;SDS011;27703;51.980;5.848;2024-02-21T14:04:00;7.13;;;2.20;;
42018;SDS011;27703;51.980;5.848;2024-02-21T14:06:26;9.27;;;2.60;;
42018;SDS011;27703;51.980;5.848;2024-02-21T14:08:52;5.93;;;1.60;;
42018;SDS011;27703;51.980;5.848;2024-02-21T14:11:18;4.07;;;1.88;;
42018;SDS011;27703;51.980;5.848;2024-02-21T14:13:43;9.30;;;1.70;;
42018;SDS011;27703;51.980;5.848;2024-02-21T14:16:10;10.57;;;1.95;;
42018;SDS011;27703;51.980;5.848;2024-02-21T14:18:38;6.35;;;1.38;;
42018;SDS011;27703;51.980;5.848;2024-02-21T14:21:06;7.05;;;1.63;;
42018;SDS011;27703;51.980;5.848;2024-02-21T14:23:31;10.93;;;1.50;;
42018;SDS011;27703;51.980;5.848;2024-02-21T14:25:58;8.88;;;1.67;;
42018;SDS011;27703;51.980;5.848;2024-02-21T14:28:24;7.00;;;2.03;;
42018;SDS011;27703;51.980;5.848;2024-02-21T14:30:50;9.85;;;1.67;;
42018;SDS011;27703;51.980;5.848;2024-02-21T14:33:18;6.07;;;1.75;;
42018;SDS011;27703;51.980;5.848;2024-02-21T14:35:44;5.47;;;1.40;;
42018;SDS011;27703;51.980;5.848;2024-02-21T14:38:10;6.07;;;1.42;;